Time;durP1;ratioP1;P1;durP2;ratioP2;P2;SDS_P1;SDS_P2;PMS_P1;PMS_P2;Temp;Humidity;BMP_temperature;BMP_pressure;BME280_temperature;BME280_humidity;BME280_pressure;Samples;Min_cycle;Max_cycle;Signal;HPM_P1;HPM_P2
2022/09/14 00:03:22;;;;;;;3.33;0.98;;;16.50;99.90;;;;;;20785898;28;20044;-36
2022/09/14 00:13:23;;;;;;;9.25;0.35;;;16.60;99.90;;;;;;20772872;28;20103;-36
2022/09/14 00:23:24;;;;;;;1.05;0.45;;;16.50;99.90;;;;;;20759675;28;20343;-36
2022/09/14 00:33:25;;;;;;;0.35;0.15;;;16.40;99.90;;;;;;20766657;28;20076;-36
2022/09/14 00:43:26;;;;;;;0.30;0.10;;;16.40;99.90;;;;;;20766301;28;20073;-36
2022/09/14 00:53:27;;;;;;;0.77;0.20;;;16.40;99.90;;;;;;20764866;28;20961;-36
2022/09/14 01:03:28;;;;;;;1.95;0.93;;;16.30;99.90;;;;;;20752839;28;20127;-37
2022/09/14 01:13:55;;;;;;;0.68;0.20;;;16.20;99.90;;;;;;20761686;28;20191;-37
2022/09/14 01:24:14;;;;;;;1.10;0.30;;;16.20;99.90;;;;;;20758037;28;21390;-36
2022/09/14 01:34:44;;;;;;;0.63;0.30;;;16.10;99.90;;;;;;20763807;28;20132;-36
2022/09/14 01:44:50;;;;;;;5.13;1.35;;;16.00;99.90;;;;;;20749414;28;20905;-36
2022/09/14 01:55:00;;;;;;;1.00;0.30;;;16.00;99.90;;;;;;20757331;28;20071;-36
2022/09/14 02:05:13;;;;;;;3.15;0.30;;;16.00;99.90;;;;;;20761137;28;20065;-36
2022/09/14 02:15:15;;;;;;;2.42;0.20;;;16.00;99.90;;;;;;20766778;28;20162;-36
2022/09/14 02:25:16;;;;;;;2.92;0.32;;;16.00;99.90;;;;;;20759175;28;20548;-36
2022/09/14 02:35:45;;;;;;;0.60;0.20;;;16.00;99.90;;;;;;20765102;28;20511;-36
2022/09/14 02:45:55;;;;;;;1.83;0.38;;;16.00;99.90;;;;;;20853411;28;20114;-36
2022/09/14 02:56:00;;;;;;;0.28;0.10;;;16.00;99.90;;;;;;20831961;28;20166;-36
2022/09/14 03:06:01;;;;;;;0.57;0.20;;;16.00;99.90;;;;;;20840471;28;20128;-37
2022/09/14 03:16:07;;;;;;;0.90;0.20;;;15.90;99.90;;;;;;20856827;28;21790;-37
2022/09/14 03:26:11;;;;;;;1.42;0.38;;;15.80;99.90;;;;;;20844014;28;20884;-36
2022/09/14 03:36:17;;;;;;;0.38;0.10;;;15.80;99.90;;;;;;20836471;28;20670;-37
2022/09/14 03:46:21;;;;;;;0.88;0.30;;;15.70;99.90;;;;;;20852526;28;20125;-38
2022/09/14 03:56:22;;;;;;;0.85;0.30;;;15.70;99.90;;;;;;20829368;28;20399;-37
2022/09/14 04:06:24;;;;;;;0.45;0.13;;;15.60;99.90;;;;;;20831646;28;20062;-37
2022/09/14 04:16:27;;;;;;;1.30;0.40;;;15.60;99.90;;;;;;20850360;28;20556;-37
2022/09/14 04:26:30;;;;;;;1.13;0.40;;;15.50;99.90;;;;;;20860089;28;20053;-37
2022/09/14 04:36:32;;;;;;;1.23;0.40;;;15.40;99.90;;;;;;20851725;28;20191;-37
2022/09/14 04:46:34;;;;;;;2.50;0.25;;;15.60;99.90;;;;;;20858167;28;20142;-37
2022/09/14 04:56:35;;;;;;;0.75;0.22;;;15.50;99.90;;;;;;20857567;28;20122;-36
2022/09/14 05:06:39;;;;;;;0.55;0.20;;;15.40;99.90;;;;;;20860434;28;20129;-36
2022/09/14 05:16:41;;;;;;;1.90;0.63;;;15.20;99.90;;;;;;20866288;28;20043;-37
2022/09/14 05:26:43;;;;;;;0.85;0.30;;;15.30;99.90;;;;;;20845804;28;20812;-37
2022/09/14 05:36:45;;;;;;;0.40;0.10;;;15.10;99.90;;;;;;20862567;28;20063;-37
2022/09/14 05:46:46;;;;;;;0.70;0.30;;;15.10;99.90;;;;;;20872076;28;20158;-37
2022/09/14 05:56:47;;;;;;;0.50;0.20;;;15.20;99.90;;;;;;20881295;28;20086;-37
2022/09/14 06:06:48;;;;;;;1.70;0.45;;;15.10;99.90;;;;;;20873546;28;20036;-37
2022/09/14 06:16:49;;;;;;;1.83;0.90;;;15.20;99.90;;;;;;20862168;28;20044;-37
2022/09/14 06:26:50;;;;;;;1.27;0.40;;;15.30;99.90;;;;;;20814042;28;20255;-37
2022/09/14 06:36:52;;;;;;;1.42;0.82;;;15.30;99.90;;;;;;20802704;28;20494;-37
2022/09/14 06:46:53;;;;;;;1.35;1.00;;;15.40;99.90;;;;;;20830718;28;20512;-37
2022/09/14 06:56:54;;;;;;;1.58;0.50;;;15.40;99.90;;;;;;20826481;28;20448;-37
2022/09/14 07:06:55;;;;;;;1.80;0.50;;;15.40;99.90;;;;;;20810479;28;20094;-37
2022/09/14 07:16:56;;;;;;;1.45;0.45;;;15.40;99.90;;;;;;20836559;28;20064;-37
2022/09/14 07:26:57;;;;;;;0.70;0.25;;;15.50;99.90;;;;;;20835805;28;20176;-37
2022/09/14 07:36:58;;;;;;;0.75;0.30;;;15.70;99.90;;;;;;20851828;28;20036;-37
2022/09/14 07:46:59;;;;;;;0.43;0.25;;;15.80;99.90;;;;;;20839362;28;20035;-37
2022/09/14 07:57:00;;;;;;;5.38;0.88;;;15.90;99.90;;;;;;20812056;28;20674;-37
2022/09/14 08:07:01;;;;;;;1.70;0.30;;;16.00;99.90;;;;;;20856214;28;20041;-37
2022/09/14 08:17:03;;;;;;;0.82;0.28;;;16.10;99.90;;;;;;20847667;28;20067;-37
2022/09/14 08:27:03;;;;;;;0.90;0.55;;;16.10;99.90;;;;;;20850756;28;20186;-37
2022/09/14 08:37:04;;;;;;;2.67;1.85;;;16.20;99.90;;;;;;20861941;28;20033;-37
2022/09/14 08:47:11;;;;;;;1.15;0.47;;;16.20;99.90;;;;;;20857330;28;20167;-37
2022/09/14 08:57:21;;;;;;;1.38;0.40;;;16.20;99.90;;;;;;20862962;28;20357;-37
2022/09/14 09:07:41;;;;;;;0.70;0.30;;;16.30;99.90;;;;;;20866534;28;20496;-37
2022/09/14 09:17:48;;;;;;;0.47;0.22;;;16.50;99.90;;;;;;20863071;28;20946;-37
2022/09/14 09:27:54;;;;;;;0.95;0.30;;;16.60;99.90;;;;;;20861008;28;20129;-37
2022/09/14 09:37:55;;;;;;;4.22;0.95;;;16.40;99.90;;;;;;20866341;28;20040;-37
2022/09/14 09:47:56;;;;;;;1.30;0.70;;;16.50;99.90;;;;;;20849366;28;20055;-37
2022/09/14 09:58:16;;;;;;;0.43;0.20;;;16.50;99.90;;;;;;20893175;28;20098;-37
2022/09/14 10:08:18;;;;;;;1.67;0.50;;;16.50;99.90;;;;;;20905732;28;20040;-37
2022/09/14 10:18:20;;;;;;;1.20;0.30;;;16.60;99.90;;;;;;20890306;28;20045;-37
2022/09/14 10:28:30;;;;;;;2.65;0.35;;;16.70;99.90;;;;;;20869414;28;20048;-37
2022/09/14 10:38:41;;;;;;;1.67;0.70;;;16.80;99.90;;;;;;20851790;28;20072;-37
2022/09/14 10:48:45;;;;;;;5.75;1.23;;;16.90;99.90;;;;;;20847639;28;21865;-37
2022/09/14 10:58:58;;;;;;;1.67;0.65;;;17.00;99.90;;;;;;20852192;28;20037;-37
2022/09/14 11:09:13;;;;;;;1.50;0.40;;;17.10;99.90;;;;;;20858395;28;20890;-37
2022/09/14 11:19:55;;;;;;;1.30;1.10;;;17.10;99.90;;;;;;20865917;28;20151;-37
2022/09/14 11:30:04;;;;;;;1.60;0.77;;;17.30;99.90;;;;;;20813356;28;20983;-38
2022/09/14 11:40:14;;;;;;;1.73;0.30;;;17.40;99.90;;;;;;20878308;28;20439;-37
2022/09/14 11:50:23;;;;;;;4.47;1.30;;;17.60;99.90;;;;;;20866280;28;20091;-37
2022/09/14 12:00:23;;;;;;;1.17;0.38;;;18.00;99.90;;;;;;20870902;28;20032;-37
2022/09/14 12:10:25;;;;;;;1.17;0.35;;;19.20;99.90;;;;;;20876753;28;20132;-37
2022/09/14 12:20:51;;;;;;;1.67;0.30;;;19.20;99.90;;;;;;20878676;28;20377;-38
2022/09/14 12:30:52;;;;;;;1.48;0.77;;;20.00;99.90;;;;;;20877900;28;20903;-37
2022/09/14 12:40:57;;;;;;;3.30;0.47;;;20.10;99.90;;;;;;20871489;28;20041;-38
2022/09/14 12:50:58;;;;;;;1.23;0.35;;;19.70;99.90;;;;;;20872286;28;20518;-38
2022/09/14 13:00:59;;;;;;;1.00;0.30;;;19.40;99.90;;;;;;20868619;28;20041;-37
2022/09/14 13:11:00;;;;;;;1.05;0.50;;;19.80;99.90;;;;;;20867585;28;20098;-37
2022/09/14 13:21:22;;;;;;;1.40;0.60;;;19.90;99.90;;;;;;20863537;28;21525;-37
2022/09/14 13:31:35;;;;;;;1.88;1.10;;;20.40;99.90;;;;;;20859037;28;20145;-37
2022/09/14 13:41:42;;;;;;;1.50;0.63;;;20.30;99.90;;;;;;20856684;28;20741;-37
2022/09/14 13:51:43;;;;;;;0.73;0.30;;;20.00;99.90;;;;;;20857971;28;20857;-37
2022/09/14 14:01:55;;;;;;;1.48;0.40;;;20.10;99.90;;;;;;20854980;28;20037;-38
2022/09/14 14:11:57;;;;;;;0.95;0.30;;;20.90;99.90;;;;;;20858014;28;20072;-37
2022/09/14 14:22:13;;;;;;;0.77;0.25;;;21.60;99.90;;;;;;20860110;28;20242;-37
2022/09/14 14:32:14;;;;;;;1.95;0.47;;;22.10;99.90;;;;;;20798744;28;20116;-38
2022/09/14 14:42:16;;;;;;;0.55;0.20;;;21.90;99.90;;;;;;20844160;28;20037;-37
2022/09/14 14:52:17;;;;;;;0.50;0.20;;;21.80;99.90;;;;;;20850201;28;20091;-37
2022/09/14 15:02:18;;;;;;;0.57;0.10;;;21.50;99.90;;;;;;20855444;28;20040;-37
2022/09/14 15:12:19;;;;;;;1.02;0.50;;;21.30;99.90;;;;;;20853897;28;20052;-37
2022/09/14 15:22:20;;;;;;;0.73;0.20;;;21.10;99.90;;;;;;20840467;28;20569;-37
2022/09/14 15:32:21;;;;;;;1.00;0.20;;;20.70;99.90;;;;;;20834334;28;20076;-37
2022/09/14 15:42:23;;;;;;;1.17;0.30;;;20.30;99.90;;;;;;20828123;28;20522;-37
2022/09/14 15:52:24;;;;;;;0.25;0.10;;;20.00;99.90;;;;;;20824231;28;21047;-37
2022/09/14 16:02:25;;;;;;;0.80;0.20;;;19.70;99.90;;;;;;20869793;28;20414;-37
2022/09/14 16:12:26;;;;;;;0.13;0.05;;;19.60;99.90;;;;;;20891788;28;20416;-37
2022/09/14 16:22:27;;;;;;;0.60;0.10;;;19.50;99.90;;;;;;20886409;28;20423;-37
2022/09/14 16:32:29;;;;;;;0.57;0.17;;;19.30;99.90;;;;;;20892567;28;20102;-37
2022/09/14 16:42:30;;;;;;;0.35;0.10;;;19.20;99.90;;;;;;20887511;28;20091;-38
2022/09/14 16:52:31;;;;;;;0.60;0.10;;;19.10;99.90;;;;;;20869321;28;20049;-37
2022/09/14 17:02:32;;;;;;;2.45;0.85;;;18.90;99.90;;;;;;20864840;28;20628;-37
2022/09/14 17:12:33;;;;;;;1.67;0.47;;;18.80;99.90;;;;;;20864172;28;20041;-37
2022/09/14 17:22:34;;;;;;;0.32;0.10;;;18.60;99.90;;;;;;20868155;28;20055;-37
2022/09/14 17:32:35;;;;;;;0.57;0.32;;;18.40;99.90;;;;;;20858028;28;20528;-37
2022/09/14 17:42:36;;;;;;;0.57;0.20;;;18.20;99.90;;;;;;20839020;28;20082;-37
2022/09/14 17:52:37;;;;;;;0.28;0.10;;;18.10;99.90;;;;;;20850687;28;20048;-37
2022/09/14 18:02:38;;;;;;;0.10;0.00;;;18.00;99.90;;;;;;20854927;28;20029;-37
2022/09/14 18:12:39;;;;;;;0.20;0.10;;;17.90;99.90;;;;;;20851331;28;20071;-37
2022/09/14 18:22:40;;;;;;;0.30;0.10;;;17.80;99.90;;;;;;20846802;28;20033;-37
2022/09/14 18:32:41;;;;;;;0.17;0.10;;;17.60;99.90;;;;;;20837703;28;20147;-37
2022/09/14 18:42:42;;;;;;;0.15;0.00;;;17.50;99.90;;;;;;20857198;28;20028;-37
2022/09/14 18:52:43;;;;;;;0.35;0.10;;;17.30;99.90;;;;;;20841586;28;20037;-37
2022/09/14 19:02:49;;;;;;;0.30;0.10;;;17.10;99.90;;;;;;20857738;28;20091;-37
2022/09/14 19:12:50;;;;;;;0.95;0.10;;;17.00;99.90;;;;;;20832528;28;20064;-37
2022/09/14 19:22:51;;;;;;;0.45;0.15;;;16.90;99.90;;;;;;20788343;28;20713;-37
2022/09/14 19:32:52;;;;;;;1.20;0.60;;;16.80;99.90;;;;;;20862750;28;20110;-37
2022/09/14 19:42:53;;;;;;;0.60;0.20;;;16.70;99.90;;;;;;20872066;28;20033;-37
2022/09/14 19:52:54;;;;;;;0.82;0.20;;;16.60;99.90;;;;;;20834436;28;20032;-37
2022/09/14 20:02:55;;;;;;;0.52;0.30;;;16.40;99.90;;;;;;20860195;28;20021;-38
2022/09/14 20:12:56;;;;;;;0.85;0.30;;;16.30;99.90;;;;;;20852006;28;20033;-37
2022/09/14 20:22:57;;;;;;;0.28;0.10;;;16.10;99.90;;;;;;20855605;28;20052;-37
2022/09/14 20:32:58;;;;;;;0.70;0.30;;;16.00;99.90;;;;;;20858561;28;20041;-37
2022/09/14 20:42:59;;;;;;;0.82;0.25;;;16.10;99.90;;;;;;20855120;28;20083;-37
2022/09/14 20:53:00;;;;;;;5.78;0.40;;;16.10;99.90;;;;;;20849531;28;20052;-37
2022/09/14 21:03:01;;;;;;;0.93;0.30;;;16.00;99.90;;;;;;20850096;28;20044;-37
2022/09/14 21:13:02;;;;;;;1.40;0.30;;;15.80;99.90;;;;;;20845568;28;20637;-38
2022/09/14 21:23:05;;;;;;;0.70;0.30;;;15.50;99.90;;;;;;20832856;28;20167;-37
2022/09/14 21:33:05;;;;;;;0.85;0.30;;;15.40;99.90;;;;;;20831895;28;20148;-37
2022/09/14 21:43:06;;;;;;;1.50;0.57;;;15.20;99.90;;;;;;20833314;28;20037;-37
2022/09/14 21:53:08;;;;;;;0.73;0.20;;;15.10;99.90;;;;;;20840469;28;20036;-37
2022/09/14 22:03:10;;;;;;;2.25;0.45;;;15.10;99.90;;;;;;20838519;28;20103;-37
2022/09/14 22:13:10;;;;;;;1.73;0.50;;;15.20;99.90;;;;;;20836045;28;20246;-37
2022/09/14 22:23:12;;;;;;;1.40;0.43;;;15.30;99.90;;;;;;20834212;28;20033;-37
2022/09/14 22:33:13;;;;;;;0.75;0.32;;;15.50;99.90;;;;;;20834633;28;20155;-37
2022/09/14 22:43:14;;;;;;;1.60;0.57;;;15.50;99.90;;;;;;20845781;28;20045;-37
2022/09/14 22:53:16;;;;;;;0.68;0.20;;;15.60;99.90;;;;;;20842632;28;22022;-37
2022/09/14 23:03:17;;;;;;;1.20;0.63;;;15.60;99.90;;;;;;20846040;28;20601;-38
2022/09/14 23:13:19;;;;;;;2.20;0.77;;;15.60;99.90;;;;;;20861654;28;20171;-37
2022/09/14 23:23:20;;;;;;;1.48;0.57;;;15.60;99.90;;;;;;20863320;28;20127;-37
2022/09/14 23:33:21;;;;;;;1.83;0.52;;;15.70;99.90;;;;;;20865395;28;20045;-37
2022/09/14 23:43:22;;;;;;;2.92;0.50;;;15.70;99.90;;;;;;20868813;28;20048;-37
2022/09/14 23:53:23;;;;;;;1.75;0.85;;;15.70;99.90;;;;;;20864132;28;20049;-37
